Time;durP1;ratioP1;P1;durP2;ratioP2;P2;SDS_P1;SDS_P2;PMS_P1;PMS_P2;Temp;Humidity;BMP_temperature;BMP_pressure;BME280_temperature;BME280_humidity;BME280_pressure;Samples;Min_cycle;Max_cycle;Signal;HPM_P1;HPM_P2
2023/05/12 00:01:14;;;;;;;4.03;2.50;;;;;;;;;;5083914;28;20027;-74
2023/05/12 00:03:40;;;;;;;5.30;2.28;;;;;;;;;;5079358;28;20028;-74
2023/05/12 00:06:05;;;;;;;5.55;2.33;;;;;;;;;;5085884;28;20032;-73
2023/05/12 00:08:31;;;;;;;6.35;2.47;;;;;;;;;;5091173;28;20032;-74
2023/05/12 00:10:56;;;;;;;4.28;2.80;;;;;;;;;;5073109;28;20401;-73
2023/05/12 00:13:22;;;;;;;5.15;2.70;;;;;;;;;;5086008;28;20376;-73
2023/05/12 00:15:48;;;;;;;5.20;2.95;;;;;;;;;;5069966;28;20036;-73
2023/05/12 00:18:13;;;;;;;8.05;3.03;;;;;;;;;;5094331;28;20050;-74
2023/05/12 00:20:39;;;;;;;6.18;2.83;;;;;;;;;;5085180;28;20714;-74
2023/05/12 00:23:04;;;;;;;5.20;2.70;;;;;;;;;;5083645;28;20491;-74
2023/05/12 00:25:29;;;;;;;6.32;2.92;;;;;;;;;;5067496;28;20039;-73
2023/05/12 00:27:54;;;;;;;6.22;3.00;;;;;;;;;;5085556;28;20036;-74
2023/05/12 00:30:20;;;;;;;5.38;3.10;;;;;;;;;;5069270;28;20024;-74
2023/05/12 00:32:45;;;;;;;5.80;3.00;;;;;;;;;;5066992;28;20032;-74
2023/05/12 00:35:10;;;;;;;6.38;2.88;;;;;;;;;;5065755;28;20021;-73
2023/05/12 00:37:35;;;;;;;4.80;2.92;;;;;;;;;;5074445;28;20036;-74
2023/05/12 00:40:01;;;;;;;4.72;2.90;;;;;;;;;;5083726;28;20040;-74
2023/05/12 00:42:27;;;;;;;5.38;3.22;;;;;;;;;;5066491;28;20028;-74
2023/05/12 00:44:52;;;;;;;5.45;2.88;;;;;;;;;;5066306;28;20029;-74
2023/05/12 00:47:19;;;;;;;3.92;2.15;;;;;;;;;;5089936;28;20036;-74
2023/05/12 00:49:45;;;;;;;5.95;2.95;;;;;;;;;;5083615;28;20035;-74
2023/05/12 00:52:10;;;;;;;5.10;2.53;;;;;;;;;;5084385;28;20399;-74
2023/05/12 00:54:37;;;;;;;6.07;2.78;;;;;;;;;;5067820;28;20028;-73
2023/05/12 00:57:02;;;;;;;7.68;3.00;;;;;;;;;;5083928;28;20050;-74
2023/05/12 00:59:29;;;;;;;6.25;2.90;;;;;;;;;;5064663;28;20495;-74
2023/05/12 01:01:54;;;;;;;5.20;2.53;;;;;;;;;;5066965;28;20073;-74
2023/05/12 01:04:20;;;;;;;4.25;2.50;;;;;;;;;;5064644;28;20127;-74
2023/05/12 01:06:58;;;;;;;4.80;2.63;;;;;;;;;;5067019;28;20028;-74
2023/05/12 01:09:23;;;;;;;4.93;2.80;;;;;;;;;;5082462;28;20417;-74
2023/05/12 01:11:49;;;;;;;5.07;2.80;;;;;;;;;;5084680;28;20024;-74
2023/05/12 01:14:17;;;;;;;4.65;2.88;;;;;;;;;;5073777;28;20426;-73
2023/05/12 01:16:47;;;;;;;5.72;2.67;;;;;;;;;;5067381;28;20040;-74
2023/05/12 01:19:17;;;;;;;4.93;2.78;;;;;;;;;;5080955;28;20181;-73
2023/05/12 01:21:43;;;;;;;4.72;2.80;;;;;;;;;;5085620;28;20556;-73
2023/05/12 01:24:09;;;;;;;4.50;2.60;;;;;;;;;;5075281;28;20107;-74
2023/05/12 01:26:36;;;;;;;6.15;3.10;;;;;;;;;;5063942;28;20039;-73
2023/05/12 01:29:03;;;;;;;6.22;2.88;;;;;;;;;;5088823;28;20051;-73
2023/05/12 01:31:28;;;;;;;5.47;3.08;;;;;;;;;;5067346;28;20478;-75
2023/05/12 01:33:54;;;;;;;5.70;2.63;;;;;;;;;;5082145;28;20082;-75
2023/05/12 01:36:19;;;;;;;7.50;3.10;;;;;;;;;;5074571;28;20036;-75
2023/05/12 01:38:44;;;;;;;4.70;2.80;;;;;;;;;;5071880;28;20028;-75
2023/05/12 01:41:10;;;;;;;5.78;3.15;;;;;;;;;;5066855;28;20035;-75
2023/05/12 01:43:35;;;;;;;5.10;3.10;;;;;;;;;;5072100;28;20394;-75
2023/05/12 01:46:00;;;;;;;8.73;3.47;;;;;;;;;;5085164;28;20479;-75
2023/05/12 01:48:27;;;;;;;6.85;3.40;;;;;;;;;;5074051;28;20028;-75
2023/05/12 01:50:58;;;;;;;8.13;3.75;;;;;;;;;;5072451;28;20032;-75
2023/05/12 01:53:23;;;;;;;5.82;3.47;;;;;;;;;;5084956;28;20055;-75
2023/05/12 01:55:48;;;;;;;7.90;3.25;;;;;;;;;;5083340;28;20486;-75
2023/05/12 01:58:14;;;;;;;6.82;3.53;;;;;;;;;;5070014;28;20376;-76
2023/05/12 02:00:39;;;;;;;5.28;3.10;;;;;;;;;;5064735;28;20061;-76
2023/05/12 02:03:10;;;;;;;5.90;3.40;;;;;;;;;;5073905;28;20028;-75
2023/05/12 02:05:35;;;;;;;9.07;3.90;;;;;;;;;;5064110;28;20395;-75
2023/05/12 02:08:00;;;;;;;6.03;3.70;;;;;;;;;;5084559;28;20949;-75
2023/05/12 02:10:26;;;;;;;6.93;3.83;;;;;;;;;;5073740;28;20058;-76
2023/05/12 02:12:51;;;;;;;9.60;3.95;;;;;;;;;;5064768;28;20028;-75
2023/05/12 02:15:17;;;;;;;7.03;3.47;;;;;;;;;;5074182;28;20048;-75
2023/05/12 02:17:44;;;;;;;4.85;3.17;;;;;;;;;;5070720;28;20029;-76
2023/05/12 02:20:11;;;;;;;6.20;3.35;;;;;;;;;;5066735;28;20390;-75
2023/05/12 02:22:36;;;;;;;7.57;3.83;;;;;;;;;;5084973;28;20020;-75
2023/05/12 02:25:01;;;;;;;7.07;3.50;;;;;;;;;;5088783;28;20398;-75
2023/05/12 02:27:27;;;;;;;7.78;3.80;;;;;;;;;;5074039;28;20077;-75
2023/05/12 02:29:53;;;;;;;6.95;3.63;;;;;;;;;;5062842;28;20449;-75
2023/05/12 02:32:18;;;;;;;6.60;3.53;;;;;;;;;;5074210;28;20031;-75
2023/05/12 02:34:46;;;;;;;4.72;3.47;;;;;;;;;;5062382;28;20024;-75
2023/05/12 02:37:11;;;;;;;10.60;4.15;;;;;;;;;;5049305;28;20103;-75
2023/05/12 02:39:36;;;;;;;9.70;3.78;;;;;;;;;;5073329;28;20024;-75
2023/05/12 02:42:02;;;;;;;6.05;3.63;;;;;;;;;;5062539;28;20064;-75
2023/05/12 02:44:27;;;;;;;7.90;3.90;;;;;;;;;;5065180;28;20551;-75
2023/05/12 02:46:52;;;;;;;9.13;3.92;;;;;;;;;;5080644;28;20498;-75
2023/05/12 02:49:18;;;;;;;7.22;3.78;;;;;;;;;;5071056;28;20054;-75
2023/05/12 02:51:44;;;;;;;7.72;4.20;;;;;;;;;;5071439;28;20068;-75
2023/05/12 02:54:09;;;;;;;6.43;3.67;;;;;;;;;;5047983;28;20086;-75
2023/05/12 02:56:35;;;;;;;7.38;3.85;;;;;;;;;;5082103;28;20032;-76
2023/05/12 02:59:00;;;;;;;7.28;4.07;;;;;;;;;;5083341;28;20025;-75
2023/05/12 03:01:25;;;;;;;8.57;3.83;;;;;;;;;;5072354;28;20024;-76
2023/05/12 03:03:50;;;;;;;6.38;4.10;;;;;;;;;;5062734;28;20040;-75
2023/05/12 03:06:16;;;;;;;11.25;4.57;;;;;;;;;;5064143;28;20089;-75
2023/05/12 03:08:41;;;;;;;6.45;3.90;;;;;;;;;;5085415;28;20024;-76
2023/05/12 03:11:06;;;;;;;10.30;5.03;;;;;;;;;;5071524;28;20056;-75
2023/05/12 03:13:32;;;;;;;7.85;4.30;;;;;;;;;;5064126;28;20482;-75
2023/05/12 03:16:00;;;;;;;9.32;3.88;;;;;;;;;;5071480;28;20521;-75
2023/05/12 03:18:26;;;;;;;7.20;4.20;;;;;;;;;;5065443;28;20028;-75
2023/05/12 03:20:51;;;;;;;8.07;4.47;;;;;;;;;;5081274;28;20404;-75
2023/05/12 03:23:18;;;;;;;7.18;4.38;;;;;;;;;;5070567;28;20133;-75
2023/05/12 03:25:43;;;;;;;7.78;4.15;;;;;;;;;;5081844;28;20032;-75
2023/05/12 03:28:09;;;;;;;7.45;3.97;;;;;;;;;;5070601;28;20035;-75
2023/05/12 03:30:34;;;;;;;6.88;4.07;;;;;;;;;;5081728;28;20032;-75
2023/05/12 03:32:59;;;;;;;9.40;4.63;;;;;;;;;;5062422;28;20021;-75
2023/05/12 03:35:25;;;;;;;6.57;4.20;;;;;;;;;;5083206;28;20040;-75
2023/05/12 03:37:50;;;;;;;8.75;4.10;;;;;;;;;;5067660;28;20046;-75
2023/05/12 03:40:17;;;;;;;12.05;6.80;;;;;;;;;;5082247;28;20032;-75
2023/05/12 03:42:45;;;;;;;12.40;7.78;;;;;;;;;;5061663;28;20033;-75
2023/05/12 03:45:11;;;;;;;8.00;4.85;;;;;;;;;;5082897;28;20035;-75
2023/05/12 03:47:39;;;;;;;7.95;4.55;;;;;;;;;;5070781;28;20108;-75
2023/05/12 03:50:05;;;;;;;7.35;4.38;;;;;;;;;;5073357;28;20401;-75
2023/05/12 03:52:30;;;;;;;5.38;3.95;;;;;;;;;;5075222;28;20025;-75
2023/05/12 03:54:56;;;;;;;6.85;3.72;;;;;;;;;;5089743;28;20485;-76
2023/05/12 03:57:21;;;;;;;7.60;4.03;;;;;;;;;;5094544;28;20032;-76
2023/05/12 03:59:46;;;;;;;6.60;3.55;;;;;;;;;;5082003;28;20490;-75
2023/05/12 04:02:11;;;;;;;8.50;4.43;;;;;;;;;;5072344;28;20062;-76
2023/05/12 04:04:38;;;;;;;7.65;3.90;;;;;;;;;;5075600;28;20047;-76
2023/05/12 04:07:03;;;;;;;10.95;4.50;;;;;;;;;;5082294;28;20055;-76
2023/05/12 04:09:29;;;;;;;7.63;4.28;;;;;;;;;;5082918;28;20025;-76
2023/05/12 04:11:55;;;;;;;6.57;4.28;;;;;;;;;;5083089;28;20032;-77
2023/05/12 04:14:21;;;;;;;7.68;3.50;;;;;;;;;;5071350;28;20498;-76
2023/05/12 04:16:47;;;;;;;7.68;4.22;;;;;;;;;;5086018;28;20023;-76
2023/05/12 04:19:12;;;;;;;8.35;3.80;;;;;;;;;;5054671;28;20111;-76
2023/05/12 04:21:37;;;;;;;6.43;4.13;;;;;;;;;;5071918;28;20032;-76
2023/05/12 04:24:03;;;;;;;9.35;4.85;;;;;;;;;;5083481;28;20029;-76
2023/05/12 04:26:31;;;;;;;8.10;4.40;;;;;;;;;;5069200;28;20032;-76
2023/05/12 04:28:57;;;;;;;9.07;6.35;;;;;;;;;;5067011;28;20036;-76
2023/05/12 04:31:22;;;;;;;11.00;6.95;;;;;;;;;;5070174;28;20502;-76
2023/05/12 04:33:48;;;;;;;8.50;5.50;;;;;;;;;;5069505;28;20474;-76
2023/05/12 04:36:13;;;;;;;9.60;5.95;;;;;;;;;;5069001;28;20032;-76
2023/05/12 04:38:40;;;;;;;8.63;5.47;;;;;;;;;;5070570;28;20082;-76
2023/05/12 04:41:06;;;;;;;7.10;5.30;;;;;;;;;;5070457;28;20527;-76
2023/05/12 04:43:32;;;;;;;10.70;6.13;;;;;;;;;;5071166;28;20037;-76
2023/05/12 04:46:00;;;;;;;10.15;6.03;;;;;;;;;;5064515;28;20067;-76
2023/05/12 04:48:27;;;;;;;7.05;5.10;;;;;;;;;;5068307;28;20051;-76
2023/05/12 04:50:53;;;;;;;7.53;4.60;;;;;;;;;;5080075;28;20032;-76
2023/05/12 04:53:18;;;;;;;9.43;6.10;;;;;;;;;;5085779;28;20024;-76
2023/05/12 04:55:44;;;;;;;11.32;7.47;;;;;;;;;;5094073;28;20080;-77
2023/05/12 04:58:11;;;;;;;9.95;7.47;;;;;;;;;;5073229;28;20067;-76
2023/05/12 05:00:37;;;;;;;11.38;7.55;;;;;;;;;;5074269;28;20025;-76
2023/05/12 05:03:02;;;;;;;8.07;5.57;;;;;;;;;;5072736;28;20107;-76
2023/05/12 05:05:28;;;;;;;9.82;6.20;;;;;;;;;;5073513;28;20021;-76
2023/05/12 05:07:54;;;;;;;8.60;4.90;;;;;;;;;;5073885;28;20023;-76
2023/05/12 05:10:19;;;;;;;9.25;4.57;;;;;;;;;;5079239;28;20032;-76
2023/05/12 05:12:45;;;;;;;7.28;4.10;;;;;;;;;;5072245;28;20046;-76
2023/05/12 05:15:10;;;;;;;8.15;5.55;;;;;;;;;;5066071;28;20027;-76
2023/05/12 05:17:37;;;;;;;7.35;4.85;;;;;;;;;;5075412;28;20024;-76
2023/05/12 05:20:04;;;;;;;6.85;3.70;;;;;;;;;;5065385;28;20038;-76
2023/05/12 05:22:30;;;;;;;7.47;4.07;;;;;;;;;;5067074;28;20046;-76
2023/05/12 05:24:55;;;;;;;6.53;4.80;;;;;;;;;;5073450;28;20028;-76
2023/05/12 05:27:21;;;;;;;5.75;4.07;;;;;;;;;;5083569;28;20036;-76
2023/05/12 05:29:46;;;;;;;7.95;3.85;;;;;;;;;;5074110;28;20025;-76
2023/05/12 05:32:11;;;;;;;8.20;4.40;;;;;;;;;;5064961;28;20028;-76
2023/05/12 05:34:37;;;;;;;8.40;5.45;;;;;;;;;;5074229;28;20063;-76
2023/05/12 05:37:02;;;;;;;6.90;5.05;;;;;;;;;;5064450;28;20032;-76
2023/05/12 05:39:29;;;;;;;8.60;5.05;;;;;;;;;;5065990;28;20025;-76
2023/05/12 05:41:55;;;;;;;10.93;5.80;;;;;;;;;;5064221;28;20530;-76
2023/05/12 05:44:20;;;;;;;6.45;4.82;;;;;;;;;;5066421;28;20032;-75
2023/05/12 05:46:45;;;;;;;11.90;6.72;;;;;;;;;;5065080;28;20031;-76
2023/05/12 05:49:11;;;;;;;12.05;8.15;;;;;;;;;;5070332;28;20483;-76
2023/05/12 05:51:36;;;;;;;12.05;8.07;;;;;;;;;;5076776;28;20035;-76
2023/05/12 05:54:02;;;;;;;8.30;6.40;;;;;;;;;;5080147;28;20055;-76
2023/05/12 05:56:27;;;;;;;11.55;6.88;;;;;;;;;;5074743;28;20032;-76
2023/05/12 05:58:52;;;;;;;12.73;8.55;;;;;;;;;;5063268;28;20062;-76
2023/05/12 06:01:18;;;;;;;13.10;8.50;;;;;;;;;;5067620;28;20035;-76
2023/05/12 06:03:43;;;;;;;12.80;8.73;;;;;;;;;;5074662;28;20475;-76
2023/05/12 06:06:08;;;;;;;10.40;7.38;;;;;;;;;;5089881;28;20032;-76
2023/05/12 06:08:33;;;;;;;10.35;7.85;;;;;;;;;;5074910;28;20090;-75
2023/05/12 06:10:59;;;;;;;11.55;7.50;;;;;;;;;;5084230;28;20032;-76
2023/05/12 06:13:24;;;;;;;12.50;7.35;;;;;;;;;;5073895;28;20025;-78
2023/05/12 06:15:49;;;;;;;11.18;7.65;;;;;;;;;;5079108;28;20501;-78
2023/05/12 06:18:15;;;;;;;10.15;6.60;;;;;;;;;;5086398;28;20027;-78
2023/05/12 06:20:41;;;;;;;7.45;4.53;;;;;;;;;;5065088;28;20066;-76
2023/05/12 06:23:06;;;;;;;6.53;4.45;;;;;;;;;;5084209;28;20036;-76
2023/05/12 06:25:32;;;;;;;6.13;4.13;;;;;;;;;;5053775;28;20119;-76
2023/05/12 06:27:59;;;;;;;8.95;3.83;;;;;;;;;;5067169;28;20161;-76
2023/05/12 06:30:25;;;;;;;8.48;4.85;;;;;;;;;;5063026;28;20111;-76
2023/05/12 06:32:53;;;;;;;11.30;5.85;;;;;;;;;;5081748;28;20024;-76
2023/05/12 06:35:18;;;;;;;6.22;4.70;;;;;;;;;;5075462;28;20058;-76
2023/05/12 06:37:48;;;;;;;8.30;5.43;;;;;;;;;;5088098;28;20024;-76
2023/05/12 06:40:13;;;;;;;9.85;6.97;;;;;;;;;;5072681;28;20032;-76
2023/05/12 06:42:38;;;;;;;9.65;7.43;;;;;;;;;;5082860;28;20051;-76
2023/05/12 06:45:08;;;;;;;10.80;7.47;;;;;;;;;;5066012;28;20024;-76
2023/05/12 06:47:33;;;;;;;12.25;7.15;;;;;;;;;;5072506;28;20043;-76
2023/05/12 06:49:58;;;;;;;11.77;7.57;;;;;;;;;;5084199;28;20071;-76
2023/05/12 06:52:24;;;;;;;12.95;7.97;;;;;;;;;;5083913;28;20114;-76
2023/05/12 06:54:49;;;;;;;12.52;8.68;;;;;;;;;;5081811;28;20071;-76
2023/05/12 06:57:14;;;;;;;9.10;7.18;;;;;;;;;;5073501;28;20032;-76
2023/05/12 06:59:40;;;;;;;9.77;6.45;;;;;;;;;;5086815;28;20036;-76
2023/05/12 07:02:05;;;;;;;10.38;7.32;;;;;;;;;;5080558;28;20020;-76
2023/05/12 07:04:30;;;;;;;10.30;6.07;;;;;;;;;;5080455;28;20037;-76
2023/05/12 07:06:55;;;;;;;10.13;6.28;;;;;;;;;;5082967;28;20032;-76
2023/05/12 07:09:21;;;;;;;14.02;7.88;;;;;;;;;;5081406;28;20043;-76
2023/05/12 07:11:46;;;;;;;8.90;5.88;;;;;;;;;;5083015;28;20036;-75
2023/05/12 07:14:11;;;;;;;10.77;5.05;;;;;;;;;;5083081;28;20033;-76
2023/05/12 07:16:37;;;;;;;14.05;6.93;;;;;;;;;;5083743;28;20637;-76
2023/05/12 07:19:04;;;;;;;12.35;7.70;;;;;;;;;;5085001;28;20035;-76
2023/05/12 07:21:29;;;;;;;13.90;7.18;;;;;;;;;;5061851;28;20036;-76
2023/05/12 07:23:55;;;;;;;10.00;6.18;;;;;;;;;;5082863;28;20036;-75
2023/05/12 07:26:20;;;;;;;10.82;5.97;;;;;;;;;;5083430;28;20038;-76
2023/05/12 07:28:45;;;;;;;11.32;6.35;;;;;;;;;;5082560;28;20039;-76
2023/05/12 07:31:11;;;;;;;10.50;6.47;;;;;;;;;;5083402;28;20111;-76
2023/05/12 07:33:36;;;;;;;12.50;6.40;;;;;;;;;;5113703;22;20448;-75
2023/05/12 07:36:03;;;;;;;9.93;6.43;;;;;;;;;;5103393;28;20639;-75
2023/05/12 07:38:29;;;;;;;8.48;6.15;;;;;;;;;;5081838;28;20032;-75
2023/05/12 07:40:54;;;;;;;11.63;6.00;;;;;;;;;;5102344;28;20046;-75
2023/05/12 07:43:19;;;;;;;12.02;6.30;;;;;;;;;;5082159;28;20029;-75
2023/05/12 07:45:45;;;;;;;11.70;6.60;;;;;;;;;;5084672;28;20031;-75
2023/05/12 07:48:10;;;;;;;9.68;6.53;;;;;;;;;;5097726;28;20024;-75
2023/05/12 07:50:36;;;;;;;10.30;6.57;;;;;;;;;;5099749;28;20047;-75
2023/05/12 07:53:01;;;;;;;9.27;7.07;;;;;;;;;;5084150;28;20035;-76
2023/05/12 07:55:26;;;;;;;11.00;4.95;;;;;;;;;;5101241;28;20063;-76
2023/05/12 07:57:51;;;;;;;14.15;6.20;;;;;;;;;;5096935;28;20077;-76
2023/05/12 08:00:17;;;;;;;10.02;6.70;;;;;;;;;;5100267;28;20028;-76
2023/05/12 08:02:42;;;;;;;15.82;8.15;;;;;;;;;;5083752;28;20061;-76
2023/05/12 08:05:08;;;;;;;12.93;7.20;;;;;;;;;;5102153;28;20023;-76
2023/05/12 08:07:34;;;;;;;9.55;6.00;;;;;;;;;;5099626;28;20455;-76
2023/05/12 08:09:59;;;;;;;9.90;4.88;;;;;;;;;;5100326;28;20071;-76
2023/05/12 08:12:24;;;;;;;6.32;5.00;;;;;;;;;;5083290;28;20031;-76
2023/05/12 08:14:50;;;;;;;9.45;5.53;;;;;;;;;;5100985;28;20032;-76
2023/05/12 08:17:15;;;;;;;10.82;5.22;;;;;;;;;;5084764;28;20070;-75
2023/05/12 08:19:40;;;;;;;8.27;4.97;;;;;;;;;;5086300;28;20024;-76
2023/05/12 08:22:05;;;;;;;9.60;5.75;;;;;;;;;;5101471;28;20040;-75
2023/05/12 08:24:31;;;;;;;10.27;6.13;;;;;;;;;;5098687;28;20062;-75
2023/05/12 08:26:56;;;;;;;10.07;6.00;;;;;;;;;;5103286;28;20063;-76
2023/05/12 08:29:21;;;;;;;10.15;5.75;;;;;;;;;;5099185;28;20036;-76
2023/05/12 08:31:46;;;;;;;8.90;5.75;;;;;;;;;;5084749;28;20028;-76
2023/05/12 08:34:12;;;;;;;11.90;5.28;;;;;;;;;;5102654;28;20422;-76
2023/05/12 08:36:37;;;;;;;12.07;4.50;;;;;;;;;;5102911;28;20502;-76
2023/05/12 08:39:03;;;;;;;7.38;5.25;;;;;;;;;;5104584;28;20032;-76
2023/05/12 08:41:48;;;;;;;11.27;5.55;;;;;;;;;;5085929;28;20119;-76
2023/05/12 08:44:14;;;;;;;14.30;5.85;;;;;;;;;;5100705;28;20501;-76
2023/05/12 08:46:40;;;;;;;11.95;5.88;;;;;;;;;;5106686;28;20038;-76
2023/05/12 08:49:08;;;;;;;10.95;5.68;;;;;;;;;;5085617;28;20040;-75
2023/05/12 08:51:35;;;;;;;11.00;5.45;;;;;;;;;;5102243;28;20027;-76
2023/05/12 08:54:02;;;;;;;9.05;4.55;;;;;;;;;;5103860;28;20046;-76
2023/05/12 08:56:28;;;;;;;7.85;4.82;;;;;;;;;;5104938;28;20482;-75
2023/05/12 08:58:54;;;;;;;7.15;4.88;;;;;;;;;;5105814;28;20035;-76
2023/05/12 09:01:19;;;;;;;10.18;5.90;;;;;;;;;;5105905;28;20603;-75
2023/05/12 09:03:45;;;;;;;6.60;4.53;;;;;;;;;;5103080;28;20042;-75
2023/05/12 09:06:10;;;;;;;9.20;4.35;;;;;;;;;;5105354;28;20055;-76
2023/05/12 09:08:36;;;;;;;10.70;5.70;;;;;;;;;;5102740;28;20038;-76
2023/05/12 09:11:01;;;;;;;9.32;5.40;;;;;;;;;;5085895;28;20127;-76
2023/05/12 09:13:32;;;;;;;9.35;5.38;;;;;;;;;;5101806;28;20031;-77
2023/05/12 09:15:58;;;;;;;9.65;5.28;;;;;;;;;;5098974;28;20478;-77
2023/05/12 09:18:23;;;;;;;11.55;5.82;;;;;;;;;;5105968;28;20032;-77
2023/05/12 09:20:48;;;;;;;8.65;5.68;;;;;;;;;;5083808;28;20047;-77
2023/05/12 09:23:17;;;;;;;7.22;5.03;;;;;;;;;;5105297;28;20409;-77
2023/05/12 09:25:43;;;;;;;8.07;4.90;;;;;;;;;;5100382;28;20383;-77
2023/05/12 09:28:08;;;;;;;8.00;4.55;;;;;;;;;;5101562;28;20034;-77
2023/05/12 09:30:37;;;;;;;6.18;4.05;;;;;;;;;;5102916;28;20032;-77
2023/05/12 09:33:21;;;;;;;9.02;4.93;;;;;;;;;;5085684;28;20493;-77
2023/05/12 09:35:47;;;;;;;7.97;4.57;;;;;;;;;;5101059;28;20127;-77
2023/05/12 09:38:12;;;;;;;7.47;4.50;;;;;;;;;;5104292;28;20102;-77
2023/05/12 09:40:38;;;;;;;10.23;4.50;;;;;;;;;;5101961;28;20033;-77
2023/05/12 09:43:06;;;;;;;7.95;4.20;;;;;;;;;;5104718;28;20526;-77
2023/05/12 09:45:35;;;;;;;6.65;4.35;;;;;;;;;;5103878;28;20023;-77
2023/05/12 09:48:11;;;;;;;9.48;4.25;;;;;;;;;;5103172;28;20059;-77
2023/05/12 09:50:44;;;;;;;8.65;4.25;;;;;;;;;;5066972;28;20043;-77
2023/05/12 09:53:10;;;;;;;6.82;3.95;;;;;;;;;;5097886;28;20063;-77
2023/05/12 09:55:35;;;;;;;10.25;4.30;;;;;;;;;;5105552;28;20486;-78
2023/05/12 09:58:01;;;;;;;7.13;4.85;;;;;;;;;;5102994;28;20036;-77
2023/05/12 10:00:26;;;;;;;7.80;4.43;;;;;;;;;;5104125;28;20118;-77
2023/05/12 10:02:52;;;;;;;8.32;4.05;;;;;;;;;;5100216;28;20150;-75
2023/05/12 10:05:19;;;;;;;7.43;3.90;;;;;;;;;;5101876;28;20087;-75
2023/05/12 10:07:46;;;;;;;9.32;4.20;;;;;;;;;;5082880;28;20035;-74
2023/05/12 10:10:14;;;;;;;6.00;3.80;;;;;;;;;;5102159;28;20110;-75
2023/05/12 10:12:40;;;;;;;5.18;3.10;;;;;;;;;;5102448;28;20115;-75
2023/05/12 10:15:08;;;;;;;6.22;3.60;;;;;;;;;;5102780;28;20463;-75
2023/05/12 10:17:34;;;;;;;6.47;3.50;;;;;;;;;;5105312;28;20059;-75
2023/05/12 10:20:00;;;;;;;5.05;3.47;;;;;;;;;;5103051;28;20127;-75
2023/05/12 10:22:25;;;;;;;8.15;3.92;;;;;;;;;;5101702;28;20081;-75
2023/05/12 10:24:52;;;;;;;6.32;3.88;;;;;;;;;;5103643;28;20444;-75
2023/05/12 10:27:17;;;;;;;6.22;3.63;;;;;;;;;;5101202;28;20050;-75
2023/05/12 10:29:43;;;;;;;6.32;3.72;;;;;;;;;;5102891;28;20478;-75
2023/05/12 10:32:09;;;;;;;5.05;3.03;;;;;;;;;;5103109;28;20036;-75
2023/05/12 10:34:35;;;;;;;6.72;3.58;;;;;;;;;;5082620;28;20046;-75
2023/05/12 10:37:03;;;;;;;7.55;3.58;;;;;;;;;;5104074;28;20040;-75
2023/05/12 10:39:28;;;;;;;10.13;3.83;;;;;;;;;;5103883;28;20473;-75
2023/05/12 10:42:07;;;;;;;6.70;3.75;;;;;;;;;;5103786;28;20034;-75
2023/05/12 10:44:32;;;;;;;6.25;3.88;;;;;;;;;;5100269;28;20435;-75
2023/05/12 10:46:58;;;;;;;5.38;3.70;;;;;;;;;;5104179;28;20032;-75
2023/05/12 10:49:39;;;;;;;7.68;3.40;;;;;;;;;;5086866;28;20065;-75
2023/05/12 10:52:04;;;;;;;6.70;4.50;;;;;;;;;;5097143;28;20054;-75
2023/05/12 10:54:36;;;;;;;6.00;3.75;;;;;;;;;;5103432;28;20759;-75
2023/05/12 10:57:01;;;;;;;;;;;;;;;;;;5095582;28;20370;-75
2023/05/12 10:59:27;;;;;;;9.27;4.03;;;;;;;;;;5096133;28;19916;-75
2023/05/12 11:02:10;;;;;;;9.15;4.13;;;;;;;;;;5101438;28;20024;-75
2023/05/12 11:04:36;;;;;;;9.15;5.10;;;;;;;;;;5098049;28;20462;-75
2023/05/12 11:07:03;;;;;;;7.25;3.80;;;;;;;;;;5103480;28;20103;-75
2023/05/12 11:09:28;;;;;;;6.20;3.33;;;;;;;;;;5098570;28;20057;-75
2023/05/12 11:11:53;;;;;;;9.43;4.00;;;;;;;;;;5089502;28;20066;-75
2023/05/12 11:14:19;;;;;;;8.57;3.60;;;;;;;;;;5100399;28;20439;-75
2023/05/12 11:16:44;;;;;;;8.52;4.07;;;;;;;;;;5087603;28;20039;-75
2023/05/12 11:19:11;;;;;;;4.72;3.00;;;;;;;;;;5100551;28;20044;-75
2023/05/12 11:21:37;;;;;;;9.38;4.75;;;;;;;;;;5081776;28;20039;-75
2023/05/12 11:24:02;;;;;;;6.78;3.60;;;;;;;;;;5084037;28;20058;-75
2023/05/12 11:26:28;;;;;;;8.55;3.95;;;;;;;;;;5100901;28;20032;-75
2023/05/12 11:28:55;;;;;;;8.80;4.72;;;;;;;;;;5098293;28;20065;-75
2023/05/12 11:31:21;;;;;;;10.77;3.67;;;;;;;;;;5101585;28;20032;-75
2023/05/12 11:33:46;;;;;;;9.90;4.05;;;;;;;;;;5101189;28;20043;-75
2023/05/12 11:36:12;;;;;;;8.85;4.10;;;;;;;;;;5101168;28;20402;-75
2023/05/12 11:38:37;;;;;;;6.15;3.55;;;;;;;;;;5103105;28;20474;-75
2023/05/12 11:41:03;;;;;;;5.68;3.67;;;;;;;;;;5100926;28;20044;-75
2023/05/12 11:43:28;;;;;;;7.50;3.92;;;;;;;;;;5100801;28;20088;-75
2023/05/12 11:45:56;;;;;;;5.77;2.73;;;;;;;;;;5103897;28;20024;-75
2023/05/12 11:48:30;;;;;;;5.38;3.72;;;;;;;;;;5102243;28;20277;-75
2023/05/12 11:50:56;;;;;;;6.88;3.58;;;;;;;;;;5098763;28;20024;-75
2023/05/12 11:53:22;;;;;;;4.83;3.40;;;;;;;;;;5099245;28;20032;-75
2023/05/12 11:55:52;;;;;;;6.72;4.20;;;;;;;;;;5099674;28;20019;-75
2023/05/12 11:58:19;;;;;;;5.38;3.80;;;;;;;;;;5101039;28;20551;-75
2023/05/12 12:00:45;;;;;;;8.65;5.05;;;;;;;;;;5103011;28;20097;-76
2023/05/12 12:03:12;;;;;;;5.18;3.25;;;;;;;;;;5104935;28;20034;-75
2023/05/12 12:05:41;;;;;;;3.88;2.67;;;;;;;;;;5105295;28;20065;-76
2023/05/12 12:08:08;;;;;;;5.15;2.83;;;;;;;;;;5102047;28;20036;-76
2023/05/12 12:10:33;;;;;;;5.78;3.58;;;;;;;;;;5104592;28;20039;-76
2023/05/12 12:13:00;;;;;;;9.57;4.07;;;;;;;;;;5105529;28;20034;-75
2023/05/12 12:15:25;;;;;;;4.28;3.28;;;;;;;;;;5107167;28;20035;-75
2023/05/12 12:17:50;;;;;;;5.20;3.38;;;;;;;;;;5103759;28;20114;-75
2023/05/12 12:20:17;;;;;;;5.43;3.17;;;;;;;;;;5105989;28;20088;-75
2023/05/12 12:22:42;;;;;;;4.95;2.20;;;;;;;;;;5103474;28;20027;-76
2023/05/12 12:25:08;;;;;;;5.88;2.97;;;;;;;;;;5088215;28;20020;-75
2023/05/12 12:27:33;;;;;;;7.43;3.92;;;;;;;;;;5103058;28;20032;-75
2023/05/12 12:29:58;;;;;;;8.23;4.10;;;;;;;;;;5105518;28;20057;-75
2023/05/12 12:32:23;;;;;;;4.78;3.72;;;;;;;;;;5102852;28;20028;-75
2023/05/12 12:34:49;;;;;;;5.27;3.70;;;;;;;;;;5106216;28;20179;-75
2023/05/12 12:37:14;;;;;;;4.93;3.33;;;;;;;;;;5102087;28;20034;-75
2023/05/12 12:39:40;;;;;;;6.80;4.40;;;;;;;;;;5102938;28;20280;-75
2023/05/12 12:42:05;;;;;;;9.37;3.43;;;;;;;;;;5106650;28;20077;-75
2023/05/12 12:44:30;;;;;;;4.97;2.78;;;;;;;;;;5102814;28;20361;-75
2023/05/12 12:46:55;;;;;;;6.30;3.47;;;;;;;;;;5106366;28;20040;-75
2023/05/12 12:49:20;;;;;;;14.67;5.13;;;;;;;;;;5103185;28;20281;-75
2023/05/12 12:51:46;;;;;;;6.03;4.13;;;;;;;;;;5103043;28;20081;-76
2023/05/12 12:54:11;;;;;;;6.40;3.45;;;;;;;;;;5106209;28;20326;-75
2023/05/12 12:56:36;;;;;;;7.25;3.90;;;;;;;;;;5102592;28;20501;-75
2023/05/12 12:59:01;;;;;;;7.47;4.10;;;;;;;;;;5105712;28;20020;-75
2023/05/12 13:01:27;;;;;;;5.30;3.70;;;;;;;;;;5102597;28;20493;-75
2023/05/12 13:03:52;;;;;;;5.97;3.58;;;;;;;;;;5105390;28;20755;-75
2023/05/12 13:06:17;;;;;;;6.03;4.57;;;;;;;;;;5103262;28;20066;-75
2023/05/12 13:08:43;;;;;;;6.20;3.93;;;;;;;;;;5105043;28;20374;-75
2023/05/12 13:11:08;;;;;;;5.78;4.35;;;;;;;;;;5102318;28;20044;-75
2023/05/12 13:13:34;;;;;;;8.07;5.25;;;;;;;;;;5083855;28;20048;-76
2023/05/12 13:15:59;;;;;;;8.80;4.50;;;;;;;;;;5103426;28;20043;-76
2023/05/12 13:18:24;;;;;;;6.15;4.07;;;;;;;;;;5103734;28;20047;-76
2023/05/12 13:20:50;;;;;;;6.70;4.33;;;;;;;;;;5104797;28;20031;-75
2023/05/12 13:23:15;;;;;;;5.32;3.78;;;;;;;;;;5103274;28;20293;-75
2023/05/12 13:25:43;;;;;;;4.40;3.25;;;;;;;;;;5103002;28;20038;-76
2023/05/12 13:28:08;;;;;;;5.03;2.80;;;;;;;;;;5086103;28;20046;-76
2023/05/12 13:30:33;;;;;;;5.93;3.80;;;;;;;;;;5091284;28;20122;-76
2023/05/12 13:32:59;;;;;;;7.30;4.22;;;;;;;;;;5102979;28;20032;-76
2023/05/12 13:35:24;;;;;;;6.20;3.55;;;;;;;;;;5103931;28;20035;-76
2023/05/12 13:37:49;;;;;;;7.00;3.83;;;;;;;;;;5103240;28;20028;-75
2023/05/12 13:40:15;;;;;;;4.63;3.90;;;;;;;;;;5103344;28;20352;-75
2023/05/12 13:42:40;;;;;;;4.33;3.40;;;;;;;;;;5103343;28;20405;-76
2023/05/12 13:45:05;;;;;;;7.40;4.27;;;;;;;;;;5105587;28;20358;-74
2023/05/12 13:47:31;;;;;;;7.28;4.80;;;;;;;;;;5146648;22;20139;-81
2023/05/12 13:49:56;;;;;;;7.10;4.87;;;;;;;;;;5086312;28;20020;-80
2023/05/12 13:52:21;;;;;;;6.83;4.10;;;;;;;;;;5084212;28;20032;-81
2023/05/12 13:54:46;;;;;;;7.00;4.82;;;;;;;;;;5086511;28;20028;-80
2023/05/12 13:57:12;;;;;;;6.20;4.23;;;;;;;;;;5070041;28;20134;-80
2023/05/12 13:59:37;;;;;;;5.23;4.33;;;;;;;;;;5068013;28;20276;-80
2023/05/12 14:02:02;;;;;;;5.80;4.10;;;;;;;;;;5065623;28;20028;-81
2023/05/12 14:04:28;;;;;;;6.65;4.65;;;;;;;;;;5066737;28;20025;-81
2023/05/12 14:06:53;;;;;;;5.50;4.00;;;;;;;;;;5065641;28;20517;-81
2023/05/12 14:09:18;;;;;;;6.10;4.20;;;;;;;;;;5052222;28;20062;-81
2023/05/12 14:11:43;;;;;;;6.23;3.17;;;;;;;;;;5047724;28;20048;-80
2023/05/12 14:14:09;;;;;;;5.30;3.60;;;;;;;;;;5066680;28;20824;-80
2023/05/12 14:16:34;;;;;;;5.73;3.10;;;;;;;;;;5068936;28;20507;-80
2023/05/12 14:18:59;;;;;;;6.90;5.17;;;;;;;;;;5058330;28;20287;-80
2023/05/12 14:21:25;;;;;;;5.05;4.25;;;;;;;;;;5066046;28;20033;-80
2023/05/12 14:23:50;;;;;;;5.30;4.38;;;;;;;;;;5068466;28;20025;-80
2023/05/12 14:26:16;;;;;;;5.47;4.97;;;;;;;;;;5046465;28;20045;-81
2023/05/12 14:28:41;;;;;;;10.45;4.18;;;;;;;;;;5065002;28;20024;-80
2023/05/12 14:31:06;;;;;;;4.70;3.73;;;;;;;;;;5071148;28;20037;-81
2023/05/12 14:33:31;;;;;;;5.27;3.20;;;;;;;;;;5067894;28;20289;-81